createdAt,value
2022-09-13T00:02:16.767Z,7.20
2022-09-13T00:04:44.592Z,8.47
2022-09-13T00:07:12.316Z,6.80
2022-09-13T00:09:40.361Z,7.37
2022-09-13T00:12:09.570Z,6.33
2022-09-13T00:14:37.310Z,6.03
2022-09-13T00:17:05.117Z,7.33
2022-09-13T00:19:32.935Z,6.90
2022-09-13T00:22:00.832Z,7.27
2022-09-13T00:24:28.548Z,7.70
2022-09-13T00:26:56.321Z,6.80
2022-09-13T00:29:25.485Z,5.70
2022-09-13T00:31:53.538Z,7.27
2022-09-13T00:34:21.309Z,7.03
2022-09-13T00:36:49.081Z,7.30
2022-09-13T00:39:16.810Z,6.63
2022-09-13T00:41:45.449Z,6.77
2022-09-13T00:44:46.685Z,7.77
2022-09-13T00:47:19.685Z,6.47
2022-09-13T00:49:49.204Z,9.20
2022-09-13T00:52:21.136Z,6.30
2022-09-13T00:54:54.085Z,5.60
2022-09-13T00:57:23.477Z,5.80
2022-09-13T00:59:59.073Z,5.47
2022-09-13T01:02:29.461Z,9.27
2022-09-13T01:04:57.449Z,6.20
2022-09-13T01:07:25.289Z,6.00
2022-09-13T01:09:54.072Z,6.37
2022-09-13T01:12:33.203Z,6.00
2022-09-13T01:15:02.599Z,6.27
2022-09-13T01:17:33.825Z,6.77
2022-09-13T01:20:03.796Z,6.17
2022-09-13T01:23:11.977Z,6.90
2022-09-13T01:26:18.560Z,6.27
2022-09-13T01:28:59.562Z,5.40
2022-09-13T01:31:35.676Z,5.47
2022-09-13T01:34:27.949Z,5.60
2022-09-13T01:37:18.633Z,5.03
2022-09-13T01:40:05.548Z,5.00
2022-09-13T01:42:48.093Z,5.43
2022-09-13T01:45:28.793Z,5.00
2022-09-13T01:48:03.350Z,6.27
2022-09-13T01:50:38.454Z,5.53
2022-09-13T01:53:11.035Z,4.50
2022-09-13T01:55:44.051Z,4.77
2022-09-13T01:58:21.662Z,5.43
2022-09-13T02:00:57.827Z,5.43
2022-09-13T02:03:34.447Z,4.80
2022-09-13T02:06:07.295Z,5.20
2022-09-13T02:08:41.262Z,5.30
2022-09-13T02:11:11.757Z,4.83
2022-09-13T02:13:44.032Z,5.50
2022-09-13T02:16:17.582Z,5.53
2022-09-13T02:18:50.434Z,5.57
2022-09-13T02:21:22.365Z,5.73
2022-09-13T02:23:53.398Z,6.43
2022-09-13T02:26:23.220Z,6.67
2022-09-13T02:28:53.856Z,5.57
2022-09-13T02:31:33.649Z,5.63
2022-09-13T02:34:08.965Z,5.37
2022-09-13T02:36:41.553Z,5.23
2022-09-13T02:39:13.371Z,5.07
2022-09-13T02:41:47.527Z,6.13
2022-09-13T02:44:20.408Z,5.10
2022-09-13T02:47:01.101Z,5.40
2022-09-13T02:49:39.426Z,5.13
2022-09-13T02:52:16.920Z,5.63
2022-09-13T02:54:51.856Z,5.30
2022-09-13T02:57:27.164Z,5.03
2022-09-13T02:59:55.165Z,5.80
2022-09-13T03:02:25.024Z,5.13
2022-09-13T03:04:54.353Z,7.13
2022-09-13T03:07:22.242Z,5.97
2022-09-13T03:09:52.892Z,6.63
2022-09-13T03:12:36.815Z,6.53
2022-09-13T03:15:15.939Z,6.23
2022-09-13T03:17:53.925Z,5.97
2022-09-13T03:20:29.425Z,5.47
2022-09-13T03:23:25.478Z,5.37
2022-09-13T03:26:18.302Z,6.37
2022-09-13T03:28:55.849Z,7.23
2022-09-13T03:31:32.363Z,5.50
2022-09-13T03:34:07.348Z,5.30
2022-09-13T03:36:41.274Z,5.37
2022-09-13T03:39:15.362Z,4.73
2022-09-13T03:41:47.796Z,7.63
2022-09-13T03:44:19.415Z,5.30
2022-09-13T03:46:51.014Z,5.93
2022-09-13T03:49:21.086Z,5.60
2022-09-13T03:51:52.749Z,6.00
2022-09-13T03:54:23.477Z,6.85
2022-09-13T03:57:10.019Z,5.10
2022-09-13T03:59:38.896Z,3.97
2022-09-13T04:02:11.965Z,5.17
2022-09-13T04:04:40.656Z,4.67
2022-09-13T04:07:14.461Z,6.00
2022-09-13T04:09:42.442Z,5.83
2022-09-13T04:12:10.994Z,5.53
2022-09-13T04:14:38.969Z,6.20
2022-09-13T04:17:07.360Z,6.27
2022-09-13T04:19:35.225Z,5.23
2022-09-13T04:22:03.401Z,6.07
2022-09-13T04:24:32.753Z,4.77
2022-09-13T04:27:01.977Z,5.90
2022-09-13T04:29:31.645Z,5.03
2022-09-13T04:31:59.809Z,5.33
2022-09-13T04:34:27.991Z,5.77
2022-09-13T04:36:55.820Z,5.30
2022-09-13T04:39:24.008Z,5.07
2022-09-13T04:41:55.102Z,6.33
2022-09-13T04:44:24.281Z,5.77
2022-09-13T04:46:52.506Z,5.43
2022-09-13T04:49:21.826Z,6.67
2022-09-13T04:51:50.008Z,5.53
2022-09-13T04:54:18.216Z,6.00
2022-09-13T04:56:46.989Z,5.30
2022-09-13T04:59:16.878Z,5.20
2022-09-13T05:01:45.032Z,5.57
2022-09-13T05:04:13.098Z,5.70
2022-09-13T05:06:40.944Z,7.60
2022-09-13T05:09:08.827Z,5.60
2022-09-13T05:11:36.661Z,5.50
2022-09-13T05:14:05.663Z,7.80
2022-09-13T05:16:35.077Z,7.10
2022-09-13T05:19:03.440Z,6.50
2022-09-13T05:21:31.884Z,6.40
2022-09-13T05:24:00.409Z,7.57
2022-09-13T05:26:31.190Z,6.30
2022-09-13T05:28:59.166Z,6.23
2022-09-13T05:31:30.404Z,5.77
2022-09-13T05:34:01.649Z,5.83
2022-09-13T05:36:29.894Z,5.83
2022-09-13T05:39:26.035Z,7.27
2022-09-13T05:41:46.927Z,6.20
2022-09-13T05:44:15.038Z,5.10
2022-09-13T05:46:43.379Z,5.70
2022-09-13T05:49:14.606Z,6.17
2022-09-13T05:51:42.470Z,6.50
2022-09-13T05:54:12.888Z,5.57
2022-09-13T05:56:40.849Z,6.97
2022-09-13T05:59:12.517Z,8.67
2022-09-13T06:01:40.496Z,6.37
2022-09-13T06:04:08.387Z,6.37
2022-09-13T06:06:37.646Z,6.07
2022-09-13T06:09:06.547Z,5.20
2022-09-13T06:11:34.411Z,5.40
2022-09-13T06:14:02.249Z,4.87
2022-09-13T06:16:30.176Z,4.97
2022-09-13T06:18:59.096Z,4.33
2022-09-13T06:21:29.320Z,4.23
2022-09-13T06:23:59.002Z,4.37
2022-09-13T06:26:28.701Z,4.17
2022-09-13T06:28:58.369Z,4.43
2022-09-13T06:31:28.371Z,4.43
2022-09-13T06:33:58.552Z,4.07
2022-09-13T06:36:27.180Z,4.13
2022-09-13T06:38:55.449Z,5.23
2022-09-13T06:41:27.127Z,4.77
2022-09-13T06:43:55.963Z,5.57
2022-09-13T06:46:25.253Z,4.60
2022-09-13T06:48:53.902Z,5.90
2022-09-13T06:51:24.564Z,7.10
2022-09-13T06:53:56.460Z,5.17
2022-09-13T06:56:26.598Z,4.60
2022-09-13T06:58:57.685Z,5.43
2022-09-13T07:01:28.414Z,5.23
2022-09-13T07:03:59.656Z,4.70
2022-09-13T07:06:29.126Z,5.83
2022-09-13T07:08:59.061Z,4.97
2022-09-13T07:11:30.464Z,3.80
2022-09-13T07:13:59.629Z,5.67
2022-09-13T07:16:30.485Z,3.90
2022-09-13T07:18:59.892Z,4.93
2022-09-13T07:21:29.057Z,4.90
2022-09-13T07:23:58.171Z,3.93
2022-09-13T07:26:28.601Z,3.93
2022-09-13T07:28:58.542Z,4.30
2022-09-13T07:31:28.697Z,4.80
2022-09-13T07:33:58.873Z,5.63
2022-09-13T07:36:28.270Z,5.73
2022-09-13T07:38:56.287Z,5.00
2022-09-13T07:41:26.463Z,5.03
2022-09-13T07:43:56.048Z,3.80
2022-09-13T07:46:25.413Z,3.90
2022-09-13T07:48:55.245Z,3.53
2022-09-13T07:51:24.961Z,3.60
2022-09-13T07:53:57.582Z,3.47
2022-09-13T07:56:27.914Z,3.43
2022-09-13T07:59:00.669Z,2.90
2022-09-13T08:01:30.218Z,4.37
2022-09-13T08:04:00.244Z,4.27
2022-09-13T08:06:30.257Z,4.20
2022-09-13T08:08:58.714Z,3.10
2022-09-13T08:11:34.654Z,3.23
2022-09-13T08:14:05.217Z,3.50
2022-09-13T08:16:34.034Z,3.20
2022-09-13T08:19:03.797Z,3.77
2022-09-13T08:21:34.762Z,3.27
2022-09-13T08:24:03.234Z,3.43
2022-09-13T08:26:32.474Z,3.30
2022-09-13T08:29:03.825Z,3.17
2022-09-13T08:31:32.445Z,3.07
2022-09-13T08:34:00.656Z,3.03
2022-09-13T08:36:30.026Z,2.80
2022-09-13T08:39:00.134Z,3.20
2022-09-13T08:41:49.041Z,3.67
2022-09-13T08:44:26.261Z,3.33
2022-09-13T08:46:58.796Z,3.30
2022-09-13T08:49:31.080Z,5.53
2022-09-13T08:52:03.999Z,2.90
2022-09-13T08:54:31.878Z,3.20
2022-09-13T08:57:07.630Z,2.80
2022-09-13T08:59:51.934Z,4.03
2022-09-13T09:02:31.291Z,3.20
2022-09-13T09:05:06.764Z,5.33
2022-09-13T09:07:38.171Z,3.53
2022-09-13T09:10:09.121Z,2.90
2022-09-13T09:12:42.462Z,2.53
2022-09-13T09:15:17.290Z,2.50
2022-09-13T09:17:55.580Z,2.10
2022-09-13T09:20:31.942Z,3.07
2022-09-13T09:23:04.044Z,3.20
2022-09-13T09:25:33.030Z,2.60
2022-09-13T09:28:01.040Z,2.50
2022-09-13T09:30:42.194Z,2.20
2022-09-13T09:33:26.452Z,2.70
2022-09-13T09:36:03.105Z,2.30
2022-09-13T09:38:41.089Z,2.13
2022-09-13T09:41:19.161Z,2.50
2022-09-13T09:43:52.446Z,2.50
2022-09-13T09:46:27.106Z,1.93
2022-09-13T09:49:02.239Z,3.03
2022-09-13T09:51:32.008Z,3.00
2022-09-13T09:54:05.182Z,3.23
2022-09-13T09:56:34.368Z,2.73
2022-09-13T09:59:03.389Z,4.30
2022-09-13T10:01:35.081Z,2.97
2022-09-13T10:04:08.482Z,3.80
2022-09-13T10:06:38.466Z,3.97
2022-09-13T10:09:08.048Z,2.73
2022-09-13T10:11:48.770Z,3.40
2022-09-13T10:14:32.062Z,3.20
2022-09-13T10:17:17.150Z,3.50
2022-09-13T10:19:54.321Z,2.80
2022-09-13T10:22:23.414Z,2.83
2022-09-13T10:24:51.603Z,3.40
2022-09-13T10:27:33.840Z,2.97
2022-09-13T10:30:04.995Z,2.90
2022-09-13T10:32:34.892Z,2.60
2022-09-13T10:35:10.817Z,3.07
2022-09-13T10:37:42.956Z,3.10
2022-09-13T10:40:22.160Z,5.30
2022-09-13T10:42:55.021Z,3.00
2022-09-13T10:45:26.425Z,2.70
2022-09-13T10:48:06.755Z,2.30
2022-09-13T10:50:35.875Z,3.27
2022-09-13T10:53:05.534Z,2.67
2022-09-13T10:55:39.017Z,2.90
2022-09-13T10:58:20.889Z,3.17
2022-09-13T11:01:10.191Z,2.43
2022-09-13T11:04:13.525Z,2.23
2022-09-13T11:06:50.284Z,2.97
2022-09-13T11:09:24.280Z,2.80
2022-09-13T11:11:59.081Z,2.67
2022-09-13T11:14:42.661Z,2.97
2022-09-13T11:17:23.906Z,3.03
2022-09-13T11:20:19.131Z,4.00
2022-09-13T11:23:14.093Z,5.83
2022-09-13T11:25:55.209Z,3.50
2022-09-13T11:28:30.997Z,2.53
2022-09-13T11:31:17.506Z,2.57
2022-09-13T11:33:54.901Z,2.77
2022-09-13T11:36:44.273Z,2.87
2022-09-13T11:39:24.544Z,2.30
2022-09-13T11:42:03.166Z,2.67
2022-09-13T11:44:49.541Z,2.40
2022-09-13T11:47:27.429Z,2.23
2022-09-13T11:50:34.302Z,2.40
2022-09-13T11:53:15.791Z,3.90
2022-09-13T11:55:50.089Z,2.50
2022-09-13T11:58:24.560Z,2.07
2022-09-13T12:00:56.899Z,3.47
2022-09-13T12:03:31.365Z,3.97
2022-09-13T12:06:05.546Z,2.63
2022-09-13T12:08:36.881Z,3.47
2022-09-13T12:11:15.944Z,3.27
2022-09-13T12:13:49.311Z,2.30
2022-09-13T12:16:24.872Z,2.13
2022-09-13T12:18:56.508Z,2.60
2022-09-13T12:21:27.784Z,3.60
2022-09-13T12:24:02.651Z,5.27
2022-09-13T12:26:38.262Z,4.50
2022-09-13T12:29:14.760Z,4.67
2022-09-13T12:31:42.828Z,4.33
2022-09-13T12:34:17.190Z,3.73
2022-09-13T12:36:59.895Z,3.10
2022-09-13T12:39:52.399Z,3.37
2022-09-13T12:42:48.440Z,2.80
2022-09-13T12:45:49.223Z,3.80
2022-09-13T12:48:41.604Z,3.17
2022-09-13T12:51:21.983Z,3.23
2022-09-13T12:54:14.135Z,2.90
2022-09-13T12:57:16.638Z,2.70
2022-09-13T13:00:12.544Z,2.80
2022-09-13T13:02:43.630Z,2.20
2022-09-13T13:05:28.321Z,2.60
2022-09-13T13:08:00.732Z,2.40
2022-09-13T13:10:32.084Z,3.20
2022-09-13T13:13:14.383Z,2.97
2022-09-13T13:16:02.680Z,2.60
2022-09-13T13:18:33.042Z,2.50
2022-09-13T13:21:25.017Z,2.43
2022-09-13T13:24:26.162Z,4.60
2022-09-13T13:26:55.325Z,2.27
2022-09-13T13:29:24.421Z,2.93
2022-09-13T13:32:13.441Z,3.23
2022-09-13T13:34:44.646Z,2.43
2022-09-13T13:37:35.713Z,4.63
2022-09-13T13:40:26.782Z,3.17
2022-09-13T13:43:32.786Z,2.77
2022-09-13T13:46:27.061Z,2.70
2022-09-13T13:48:55.461Z,2.67
2022-09-13T13:51:29.031Z,2.40
2022-09-13T13:54:01.396Z,2.17
2022-09-13T13:56:49.798Z,3.00
2022-09-13T13:59:25.917Z,2.30
2022-09-13T14:01:59.464Z,2.40
2022-09-13T14:04:59.007Z,2.50
2022-09-13T14:07:49.129Z,2.57
2022-09-13T14:10:23.433Z,2.13
2022-09-13T14:13:15.970Z,2.57
2022-09-13T14:15:52.685Z,2.63
2022-09-13T14:18:43.818Z,2.17
2022-09-13T14:21:23.861Z,2.20
2022-09-13T14:23:53.590Z,2.23
2022-09-13T14:26:22.630Z,1.93
2022-09-13T14:28:50.517Z,2.10
2022-09-13T14:31:21.113Z,2.30
2022-09-13T14:33:50.405Z,2.50
2022-09-13T14:36:21.096Z,2.10
2022-09-13T14:38:55.022Z,2.30
2022-09-13T14:41:31.172Z,2.43
2022-09-13T14:44:22.574Z,2.73
2022-09-13T14:46:57.422Z,2.43
2022-09-13T14:49:32.021Z,2.10
2022-09-13T14:52:03.494Z,2.30
2022-09-13T14:54:38.389Z,2.50
2022-09-13T14:57:09.850Z,1.83
2022-09-13T14:59:44.233Z,1.97
2022-09-13T15:02:20.988Z,2.00
2022-09-13T15:04:55.889Z,1.80
2022-09-13T15:07:29.919Z,2.33
2022-09-13T15:10:00.571Z,1.97
2022-09-13T15:12:29.926Z,2.20
2022-09-13T15:15:27.647Z,2.40
2022-09-13T15:17:57.821Z,2.40
2022-09-13T15:20:29.327Z,2.10
2022-09-13T15:22:58.261Z,2.00
2022-09-13T15:25:28.176Z,2.47
2022-09-13T15:27:57.551Z,2.20
2022-09-13T15:30:29.028Z,2.47
2022-09-13T15:33:17.481Z,2.00
2022-09-13T15:35:48.329Z,1.70
2022-09-13T15:38:20.404Z,2.17
2022-09-13T15:40:58.681Z,2.20
2022-09-13T15:43:26.522Z,2.67
2022-09-13T15:45:54.442Z,3.40
2022-09-13T15:48:26.802Z,2.50
2022-09-13T15:51:08.317Z,2.67
2022-09-13T15:53:36.684Z,2.90
2022-09-13T15:56:05.692Z,2.37
2022-09-13T15:58:34.663Z,3.67
2022-09-13T16:01:02.693Z,2.60
2022-09-13T16:03:30.701Z,2.53
2022-09-13T16:05:58.971Z,3.20
2022-09-13T16:08:28.262Z,2.40
2022-09-13T16:10:56.091Z,2.30
2022-09-13T16:13:23.922Z,2.37
2022-09-13T16:15:55.847Z,2.30
2022-09-13T16:18:26.097Z,2.50
2022-09-13T16:20:53.958Z,3.00
2022-09-13T16:23:23.060Z,2.90
2022-09-13T16:25:56.902Z,2.90
2022-09-13T16:28:25.183Z,2.30
2022-09-13T16:30:53.823Z,3.03
2022-09-13T16:33:21.672Z,2.50
2022-09-13T16:35:49.538Z,2.60
2022-09-13T16:38:18.111Z,2.40
2022-09-13T16:40:46.214Z,2.40
2022-09-13T16:43:15.552Z,2.80
2022-09-13T16:45:44.789Z,2.40
2022-09-13T16:48:12.704Z,2.50
2022-09-13T16:50:41.114Z,2.23
2022-09-13T16:53:09.868Z,2.57
2022-09-13T16:55:37.970Z,2.63
2022-09-13T16:58:05.829Z,4.50
2022-09-13T17:00:35.028Z,2.67
2022-09-13T17:03:02.926Z,2.93
2022-09-13T17:05:30.870Z,2.90
2022-09-13T17:07:58.837Z,3.17
2022-09-13T17:10:28.590Z,2.73
2022-09-13T17:12:56.472Z,3.10
2022-09-13T17:15:24.327Z,3.33
2022-09-13T17:17:53.509Z,4.27
2022-09-13T17:20:21.561Z,2.97
2022-09-13T17:22:49.425Z,3.10
2022-09-13T17:25:17.669Z,3.30
2022-09-13T17:27:45.517Z,3.87
2022-09-13T17:30:14.649Z,3.30
2022-09-13T17:32:42.486Z,3.23
2022-09-13T17:35:12.386Z,3.57
2022-09-13T17:37:40.425Z,3.17
2022-09-13T17:40:09.183Z,3.67
2022-09-13T17:42:37.098Z,3.60
2022-09-13T17:45:05.453Z,3.07
2022-09-13T17:47:33.321Z,4.27
2022-09-13T17:50:02.037Z,3.80
2022-09-13T17:52:34.774Z,4.07
2022-09-13T17:55:03.072Z,4.50
2022-09-13T17:57:31.009Z,5.17
2022-09-13T17:59:58.858Z,5.77
2022-09-13T18:02:27.763Z,4.43
2022-09-13T18:04:55.686Z,4.40
2022-09-13T18:07:23.518Z,6.40
2022-09-13T18:09:52.734Z,5.97
2022-09-13T18:12:20.565Z,5.93
2022-09-13T18:14:49.360Z,5.00
2022-09-13T18:17:17.202Z,5.53
2022-09-13T18:19:46.669Z,5.67
2022-09-13T18:22:15.090Z,4.77
2022-09-13T18:24:43.494Z,6.50
2022-09-13T18:27:12.686Z,4.97
2022-09-13T18:29:40.546Z,4.67
2022-09-13T18:32:08.397Z,4.57
2022-09-13T18:34:36.257Z,4.67
2022-09-13T18:37:04.149Z,4.63
2022-09-13T18:39:32.016Z,4.87
2022-09-13T18:42:00.983Z,5.70
2022-09-13T18:44:30.692Z,4.10
2022-09-13T18:47:00.506Z,4.87
2022-09-13T18:50:40.870Z,5.20
2022-09-13T18:53:08.815Z,4.20
2022-09-13T18:55:39.844Z,3.87
2022-09-13T18:58:12.910Z,6.03
2022-09-13T19:00:43.168Z,4.63
2022-09-13T19:03:12.845Z,4.43
2022-09-13T19:05:41.325Z,4.53
2022-09-13T19:08:11.179Z,4.60
2022-09-13T19:10:39.566Z,4.73
2022-09-13T19:13:08.085Z,4.23
2022-09-13T19:15:36.454Z,4.30
2022-09-13T19:18:06.061Z,4.40
2022-09-13T19:20:34.181Z,4.37
2022-09-13T19:23:02.803Z,6.03
2022-09-13T19:25:30.911Z,5.23
2022-09-13T19:27:59.131Z,5.40
2022-09-13T19:30:27.305Z,5.10
2022-09-13T19:32:55.509Z,5.03
2022-09-13T19:35:25.009Z,5.53
2022-09-13T19:37:53.330Z,5.37
2022-09-13T19:40:22.663Z,6.03
2022-09-13T19:42:50.889Z,5.30
2022-09-13T19:45:19.804Z,4.80
2022-09-13T19:50:38.716Z,5.10
2022-09-13T19:53:06.832Z,4.23
2022-09-13T19:55:34.765Z,5.00
2022-09-13T19:58:02.601Z,4.63
2022-09-13T20:00:32.068Z,4.40
2022-09-13T20:03:00.141Z,5.27
2022-09-13T20:05:28.774Z,4.67
2022-09-13T20:07:58.122Z,4.27
2022-09-13T20:10:26.208Z,5.53
2022-09-13T20:12:55.150Z,4.70
2022-09-13T20:15:23.151Z,6.63
2022-09-13T20:17:51.106Z,5.40
2022-09-13T20:20:18.996Z,6.60
2022-09-13T20:22:46.906Z,6.23
2022-09-13T20:25:16.245Z,5.47
2022-09-13T20:27:44.082Z,5.03
2022-09-13T20:30:12.738Z,4.90
2022-09-13T20:32:40.527Z,4.83
2022-09-13T20:35:10.137Z,4.97
2022-09-13T20:37:38.186Z,5.10
2022-09-13T20:40:06.928Z,4.80
2022-09-13T20:42:36.221Z,5.17
2022-09-13T20:45:04.510Z,4.90
2022-09-13T20:47:32.458Z,5.00
2022-09-13T20:50:00.195Z,5.10
2022-09-13T20:52:27.933Z,5.27
2022-09-13T20:54:55.710Z,5.17
2022-09-13T20:57:24.237Z,5.70
2022-09-13T20:59:53.417Z,6.20
2022-09-13T21:02:21.246Z,5.13
2022-09-13T21:04:49.089Z,5.07
2022-09-13T21:07:34.422Z,5.40
2022-09-13T21:10:02.202Z,4.97
2022-09-13T21:12:30.841Z,4.83
2022-09-13T21:14:59.949Z,5.53
2022-09-13T21:17:27.668Z,4.50
2022-09-13T21:19:55.405Z,4.70
2022-09-13T21:22:24.800Z,4.83
2022-09-13T21:24:52.570Z,4.97
2022-09-13T21:27:21.222Z,4.60
2022-09-13T21:29:49.018Z,5.13
2022-09-13T21:32:18.100Z,4.93
2022-09-13T21:34:45.954Z,4.50
2022-09-13T21:37:13.762Z,4.77
2022-09-13T21:39:41.597Z,4.87
2022-09-13T21:42:09.530Z,4.80
2022-09-13T21:44:38.590Z,4.80
2022-09-13T21:47:06.596Z,5.33
2022-09-13T21:49:35.679Z,4.90
2022-09-13T21:52:03.815Z,4.37
2022-09-13T21:54:31.536Z,4.90
2022-09-13T21:56:59.244Z,5.73
2022-09-13T21:59:26.953Z,5.37
2022-09-13T22:01:55.151Z,4.77
2022-09-13T22:04:26.982Z,5.00
2022-09-13T22:06:56.591Z,5.40
2022-09-13T22:09:27.542Z,6.03
2022-09-13T22:11:56.293Z,5.93
2022-09-13T22:14:24.100Z,5.97
2022-09-13T22:16:53.513Z,7.93
2022-09-13T22:19:24.311Z,5.70
2022-09-13T22:21:56.345Z,5.63
2022-09-13T22:24:25.737Z,5.60
2022-09-13T22:26:56.201Z,5.20
2022-09-13T22:29:24.760Z,4.47
2022-09-13T22:31:53.253Z,5.07
2022-09-13T22:34:22.675Z,4.40
2022-09-13T22:36:50.516Z,4.67
2022-09-13T22:39:19.614Z,4.80
2022-09-13T22:41:47.495Z,5.17
2022-09-13T22:44:15.620Z,4.67
2022-09-13T22:46:44.822Z,4.93
2022-09-13T22:49:13.829Z,5.83
2022-09-13T22:51:41.696Z,5.10
2022-09-13T22:54:09.465Z,5.43
2022-09-13T22:56:38.713Z,5.13
2022-09-13T22:59:08.568Z,4.23
2022-09-13T23:01:37.782Z,4.27
2022-09-13T23:04:06.597Z,4.57
2022-09-13T23:06:35.240Z,5.07
2022-09-13T23:09:08.585Z,4.40
2022-09-13T23:11:39.385Z,4.93
2022-09-13T23:14:09.729Z,4.50
2022-09-13T23:16:39.544Z,4.30
2022-09-13T23:19:07.909Z,4.77
2022-09-13T23:21:37.755Z,4.63
2022-09-13T23:24:07.045Z,4.73
2022-09-13T23:26:35.149Z,4.37
2022-09-13T23:29:05.616Z,4.50
2022-09-13T23:31:36.321Z,4.93
2022-09-13T23:34:05.894Z,5.37
2022-09-13T23:36:37.057Z,5.60
2022-09-13T23:39:07.826Z,5.23
2022-09-13T23:41:35.791Z,5.03
2022-09-13T23:44:05.573Z,5.33
2022-09-13T23:46:33.457Z,5.40
2022-09-13T23:49:01.180Z,5.10
2022-09-13T23:51:29.085Z,5.60
2022-09-13T23:53:58.269Z,5.23
2022-09-13T23:56:26.856Z,5.07
2022-09-13T23:58:56.070Z,5.00
